sensor_id;sensor_type;location;lat;lon;timestamp;temperature;humidity
810;DHT22;387;48.772;9.186;2024-03-08T00:00:40;4.10;81.40
810;DHT22;387;48.772;9.186;2024-03-08T00:03:08;4.20;81.40
810;DHT22;387;48.772;9.186;2024-03-08T00:05:36;4.10;81.40
810;DHT22;387;48.772;9.186;2024-03-08T00:08:01;4.10;81.50
810;DHT22;387;48.772;9.186;2024-03-08T00:10:27;4.10;81.50
810;DHT22;387;48.772;9.186;2024-03-08T00:12:54;4.10;81.70
810;DHT22;387;48.772;9.186;2024-03-08T00:15:20;4.00;81.80
810;DHT22;387;48.772;9.186;2024-03-08T00:17:48;4.00;81.70
810;DHT22;387;48.772;9.186;2024-03-08T00:20:13;4.00;81.70
810;DHT22;387;48.772;9.186;2024-03-08T00:22:39;4.00;81.80
810;DHT22;387;48.772;9.186;2024-03-08T00:25:06;4.00;81.70
810;DHT22;387;48.772;9.186;2024-03-08T00:27:34;4.00;81.80
810;DHT22;387;48.772;9.186;2024-03-08T00:30:00;4.00;81.80
810;DHT22;387;48.772;9.186;2024-03-08T00:32:26;4.00;81.80
810;DHT22;387;48.772;9.186;2024-03-08T00:34:56;3.90;81.70
810;DHT22;387;48.772;9.186;2024-03-08T00:37:22;3.80;81.80
810;DHT22;387;48.772;9.186;2024-03-08T00:39:50;3.70;81.90
810;DHT22;387;48.772;9.186;2024-03-08T00:42:17;3.60;82.20
810;DHT22;387;48.772;9.186;2024-03-08T00:44:43;3.50;82.50
810;DHT22;387;48.772;9.186;2024-03-08T00:47:09;3.50;82.70
810;DHT22;387;48.772;9.186;2024-03-08T00:49:35;3.40;82.70
810;DHT22;387;48.772;9.186;2024-03-08T00:52:02;3.40;82.80
810;DHT22;387;48.772;9.186;2024-03-08T00:54:27;3.30;83.30
810;DHT22;387;48.772;9.186;2024-03-08T00:56:53;3.40;83.40
810;DHT22;387;48.772;9.186;2024-03-08T00:59:19;3.30;83.30
810;DHT22;387;48.772;9.186;2024-03-08T01:01:44;3.30;83.30
810;DHT22;387;48.772;9.186;2024-03-08T01:04:10;3.20;83.30
810;DHT22;387;48.772;9.186;2024-03-08T01:06:36;3.20;83.40
810;DHT22;387;48.772;9.186;2024-03-08T01:09:02;3.20;83.40
810;DHT22;387;48.772;9.186;2024-03-08T01:11:28;3.20;83.70
810;DHT22;387;48.772;9.186;2024-03-08T01:13:54;3.20;83.60
810;DHT22;387;48.772;9.186;2024-03-08T01:16:19;3.20;83.70
810;DHT22;387;48.772;9.186;2024-03-08T01:18:48;3.10;83.40
810;DHT22;387;48.772;9.186;2024-03-08T01:21:13;3.10;83.60
810;DHT22;387;48.772;9.186;2024-03-08T01:23:39;3.00;83.70
810;DHT22;387;48.772;9.186;2024-03-08T01:26:05;3.10;84.10
810;DHT22;387;48.772;9.186;2024-03-08T01:28:31;3.10;84.10
810;DHT22;387;48.772;9.186;2024-03-08T01:30:59;3.00;83.80
810;DHT22;387;48.772;9.186;2024-03-08T01:33:26;3.00;83.80
810;DHT22;387;48.772;9.186;2024-03-08T01:35:52;3.00;84.10
810;DHT22;387;48.772;9.186;2024-03-08T01:38:19;3.00;84.10
810;DHT22;387;48.772;9.186;2024-03-08T01:40:46;2.90;84.10
810;DHT22;387;48.772;9.186;2024-03-08T01:43:18;2.90;84.10
810;DHT22;387;48.772;9.186;2024-03-08T01:45:43;2.80;84.30
810;DHT22;387;48.772;9.186;2024-03-08T01:48:09;2.80;84.30
810;DHT22;387;48.772;9.186;2024-03-08T01:50:35;2.70;84.30
810;DHT22;387;48.772;9.186;2024-03-08T01:53:02;2.60;84.30
810;DHT22;387;48.772;9.186;2024-03-08T01:55:28;2.60;84.40
810;DHT22;387;48.772;9.186;2024-03-08T01:57:54;2.70;84.70
810;DHT22;387;48.772;9.186;2024-03-08T02:00:21;2.70;84.70
810;DHT22;387;48.772;9.186;2024-03-08T02:02:47;2.60;84.60
810;DHT22;387;48.772;9.186;2024-03-08T02:05:15;2.50;84.60
810;DHT22;387;48.772;9.186;2024-03-08T02:07:41;2.50;84.90
810;DHT22;387;48.772;9.186;2024-03-08T02:10:09;2.40;85.00
810;DHT22;387;48.772;9.186;2024-03-08T02:12:35;2.40;85.30
810;DHT22;387;48.772;9.186;2024-03-08T02:15:01;2.50;85.50
810;DHT22;387;48.772;9.186;2024-03-08T02:17:27;2.50;85.50
810;DHT22;387;48.772;9.186;2024-03-08T02:19:53;2.50;85.50
810;DHT22;387;48.772;9.186;2024-03-08T02:22:18;2.40;85.30
810;DHT22;387;48.772;9.186;2024-03-08T02:24:45;2.40;85.30
810;DHT22;387;48.772;9.186;2024-03-08T02:27:11;2.30;85.30
810;DHT22;387;48.772;9.186;2024-03-08T02:29:37;2.30;85.30
810;DHT22;387;48.772;9.186;2024-03-08T02:32:06;2.30;85.50
810;DHT22;387;48.772;9.186;2024-03-08T02:34:31;2.40;85.50
810;DHT22;387;48.772;9.186;2024-03-08T02:36:57;2.40;85.20
810;DHT22;387;48.772;9.186;2024-03-08T02:39:23;2.30;85.00
810;DHT22;387;48.772;9.186;2024-03-08T02:41:48;2.20;85.00
810;DHT22;387;48.772;9.186;2024-03-08T02:44:14;2.20;85.20
810;DHT22;387;48.772;9.186;2024-03-08T02:46:40;2.30;85.30
810;DHT22;387;48.772;9.186;2024-03-08T02:49:06;2.30;85.30
810;DHT22;387;48.772;9.186;2024-03-08T02:51:33;2.40;85.50
810;DHT22;387;48.772;9.186;2024-03-08T02:54:00;2.40;85.50
810;DHT22;387;48.772;9.186;2024-03-08T02:56:26;2.50;85.30
810;DHT22;387;48.772;9.186;2024-03-08T02:58:52;2.50;85.20
810;DHT22;387;48.772;9.186;2024-03-08T03:01:17;2.60;85.00
810;DHT22;387;48.772;9.186;2024-03-08T03:03:45;2.60;84.60
810;DHT22;387;48.772;9.186;2024-03-08T03:06:12;2.60;84.40
810;DHT22;387;48.772;9.186;2024-03-08T03:08:39;2.60;84.60
810;DHT22;387;48.772;9.186;2024-03-08T03:11:08;2.70;84.40
810;DHT22;387;48.772;9.186;2024-03-08T03:13:33;2.70;84.30
810;DHT22;387;48.772;9.186;2024-03-08T03:15:59;2.70;84.30
810;DHT22;387;48.772;9.186;2024-03-08T03:18:24;2.70;84.00
810;DHT22;387;48.772;9.186;2024-03-08T03:20:51;2.70;83.80
810;DHT22;387;48.772;9.186;2024-03-08T03:23:17;2.80;83.60
810;DHT22;387;48.772;9.186;2024-03-08T03:25:46;2.90;83.10
810;DHT22;387;48.772;9.186;2024-03-08T03:28:11;2.90;82.70
810;DHT22;387;48.772;9.186;2024-03-08T03:30:40;2.90;82.40
810;DHT22;387;48.772;9.186;2024-03-08T03:33:05;3.00;82.10
810;DHT22;387;48.772;9.186;2024-03-08T03:35:35;3.00;81.70
810;DHT22;387;48.772;9.186;2024-03-08T03:38:01;3.00;81.70
810;DHT22;387;48.772;9.186;2024-03-08T03:40:35;3.00;81.70
810;DHT22;387;48.772;9.186;2024-03-08T03:43:01;3.10;81.50
810;DHT22;387;48.772;9.186;2024-03-08T03:45:28;3.10;81.40
810;DHT22;387;48.772;9.186;2024-03-08T03:47:54;3.10;81.20
810;DHT22;387;48.772;9.186;2024-03-08T03:50:20;3.10;80.90
810;DHT22;387;48.772;9.186;2024-03-08T03:52:46;3.10;80.60
810;DHT22;387;48.772;9.186;2024-03-08T03:55:13;3.10;80.60
810;DHT22;387;48.772;9.186;2024-03-08T03:57:39;3.10;80.50
810;DHT22;387;48.772;9.186;2024-03-08T04:00:06;3.00;80.50
810;DHT22;387;48.772;9.186;2024-03-08T04:02:31;3.10;80.60
810;DHT22;387;48.772;9.186;2024-03-08T04:04:57;3.10;80.50
810;DHT22;387;48.772;9.186;2024-03-08T04:07:24;3.10;80.30
810;DHT22;387;48.772;9.186;2024-03-08T04:09:50;3.20;80.20
810;DHT22;387;48.772;9.186;2024-03-08T04:12:15;3.10;80.00
810;DHT22;387;48.772;9.186;2024-03-08T04:14:41;3.10;80.00
810;DHT22;387;48.772;9.186;2024-03-08T04:17:07;3.20;80.00
810;DHT22;387;48.772;9.186;2024-03-08T04:19:35;3.10;79.90
810;DHT22;387;48.772;9.186;2024-03-08T04:22:01;3.20;79.90
810;DHT22;387;48.772;9.186;2024-03-08T04:24:27;3.20;79.90
810;DHT22;387;48.772;9.186;2024-03-08T04:26:53;3.10;79.70
810;DHT22;387;48.772;9.186;2024-03-08T04:29:18;3.10;79.90
810;DHT22;387;48.772;9.186;2024-03-08T04:31:44;3.10;79.90
810;DHT22;387;48.772;9.186;2024-03-08T04:34:10;3.00;79.90
810;DHT22;387;48.772;9.186;2024-03-08T04:36:36;3.00;80.00
810;DHT22;387;48.772;9.186;2024-03-08T04:39:02;3.00;80.00
810;DHT22;387;48.772;9.186;2024-03-08T04:41:28;3.00;80.30
810;DHT22;387;48.772;9.186;2024-03-08T04:43:55;3.00;80.30
810;DHT22;387;48.772;9.186;2024-03-08T04:46:23;3.00;80.50
810;DHT22;387;48.772;9.186;2024-03-08T04:48:49;3.00;80.30
810;DHT22;387;48.772;9.186;2024-03-08T04:51:14;3.00;80.30
810;DHT22;387;48.772;9.186;2024-03-08T04:53:41;3.00;80.30
810;DHT22;387;48.772;9.186;2024-03-08T04:56:06;3.00;80.30
810;DHT22;387;48.772;9.186;2024-03-08T04:58:35;3.00;80.30
810;DHT22;387;48.772;9.186;2024-03-08T05:01:01;3.00;80.50
810;DHT22;387;48.772;9.186;2024-03-08T05:03:27;3.00;80.60
810;DHT22;387;48.772;9.186;2024-03-08T05:05:53;3.00;80.50
810;DHT22;387;48.772;9.186;2024-03-08T05:08:18;3.00;80.50
810;DHT22;387;48.772;9.186;2024-03-08T05:10:45;3.00;80.50
810;DHT22;387;48.772;9.186;2024-03-08T05:13:10;2.90;80.50
810;DHT22;387;48.772;9.186;2024-03-08T05:15:36;2.80;80.50
810;DHT22;387;48.772;9.186;2024-03-08T05:18:02;2.80;80.80
810;DHT22;387;48.772;9.186;2024-03-08T05:20:27;2.80;80.80
810;DHT22;387;48.772;9.186;2024-03-08T05:22:53;2.80;80.80
810;DHT22;387;48.772;9.186;2024-03-08T05:25:18;2.80;80.80
810;DHT22;387;48.772;9.186;2024-03-08T05:27:44;2.80;80.80
810;DHT22;387;48.772;9.186;2024-03-08T05:30:10;2.80;80.80
810;DHT22;387;48.772;9.186;2024-03-08T05:32:41;2.80;80.90
810;DHT22;387;48.772;9.186;2024-03-08T05:35:10;2.80;80.90
810;DHT22;387;48.772;9.186;2024-03-08T05:37:37;2.80;80.90
810;DHT22;387;48.772;9.186;2024-03-08T05:40:04;2.80;80.90
810;DHT22;387;48.772;9.186;2024-03-08T05:42:34;2.70;80.80
810;DHT22;387;48.772;9.186;2024-03-08T05:45:00;2.70;80.90
810;DHT22;387;48.772;9.186;2024-03-08T05:47:26;2.80;81.10
810;DHT22;387;48.772;9.186;2024-03-08T05:49:51;2.80;81.20
810;DHT22;387;48.772;9.186;2024-03-08T05:52:19;2.80;81.20
810;DHT22;387;48.772;9.186;2024-03-08T05:54:44;2.80;81.20
810;DHT22;387;48.772;9.186;2024-03-08T05:57:11;2.80;81.20
810;DHT22;387;48.772;9.186;2024-03-08T05:59:36;2.80;81.40
810;DHT22;387;48.772;9.186;2024-03-08T06:02:02;2.80;81.40
810;DHT22;387;48.772;9.186;2024-03-08T06:04:29;2.80;81.40
810;DHT22;387;48.772;9.186;2024-03-08T06:06:55;2.80;81.40
810;DHT22;387;48.772;9.186;2024-03-08T06:09:22;2.70;81.20
810;DHT22;387;48.772;9.186;2024-03-08T06:11:49;2.70;81.40
810;DHT22;387;48.772;9.186;2024-03-08T06:14:14;2.70;81.50
810;DHT22;387;48.772;9.186;2024-03-08T06:16:46;2.70;81.70
810;DHT22;387;48.772;9.186;2024-03-08T06:19:13;2.70;81.50
810;DHT22;387;48.772;9.186;2024-03-08T06:21:39;2.70;81.70
810;DHT22;387;48.772;9.186;2024-03-08T06:24:05;2.70;81.80
810;DHT22;387;48.772;9.186;2024-03-08T06:26:30;2.70;81.80
810;DHT22;387;48.772;9.186;2024-03-08T06:28:56;2.80;81.80
810;DHT22;387;48.772;9.186;2024-03-08T06:31:22;2.80;81.80
810;DHT22;387;48.772;9.186;2024-03-08T06:33:48;2.80;81.80
810;DHT22;387;48.772;9.186;2024-03-08T06:36:19;2.70;81.70
810;DHT22;387;48.772;9.186;2024-03-08T06:38:50;2.80;81.90
810;DHT22;387;48.772;9.186;2024-03-08T06:41:15;2.80;82.10
810;DHT22;387;48.772;9.186;2024-03-08T06:43:45;2.90;81.90
810;DHT22;387;48.772;9.186;2024-03-08T06:46:12;2.90;81.90
810;DHT22;387;48.772;9.186;2024-03-08T06:48:41;3.00;81.80
810;DHT22;387;48.772;9.186;2024-03-08T06:51:07;3.00;81.70
810;DHT22;387;48.772;9.186;2024-03-08T06:53:33;3.10;81.80
810;DHT22;387;48.772;9.186;2024-03-08T06:56:01;3.20;81.70
810;DHT22;387;48.772;9.186;2024-03-08T06:58:27;3.20;81.40
810;DHT22;387;48.772;9.186;2024-03-08T07:00:53;3.30;81.20
810;DHT22;387;48.772;9.186;2024-03-08T07:03:19;3.50;80.60
810;DHT22;387;48.772;9.186;2024-03-08T07:05:45;3.50;79.90
810;DHT22;387;48.772;9.186;2024-03-08T07:08:11;3.50;79.90
810;DHT22;387;48.772;9.186;2024-03-08T07:10:39;3.60;79.70
810;DHT22;387;48.772;9.186;2024-03-08T07:13:07;3.80;79.60
810;DHT22;387;48.772;9.186;2024-03-08T07:15:33;3.90;79.50
810;DHT22;387;48.772;9.186;2024-03-08T07:17:58;3.90;79.00
810;DHT22;387;48.772;9.186;2024-03-08T07:20:25;4.00;78.70
810;DHT22;387;48.772;9.186;2024-03-08T07:22:51;4.10;78.40
810;DHT22;387;48.772;9.186;2024-03-08T07:25:16;4.10;78.00
810;DHT22;387;48.772;9.186;2024-03-08T07:27:50;4.10;77.70
810;DHT22;387;48.772;9.186;2024-03-08T07:30:24;4.10;77.70
810;DHT22;387;48.772;9.186;2024-03-08T07:33:08;4.20;77.60
810;DHT22;387;48.772;9.186;2024-03-08T07:35:37;4.30;77.40
810;DHT22;387;48.772;9.186;2024-03-08T07:38:06;4.30;77.30
810;DHT22;387;48.772;9.186;2024-03-08T07:40:36;4.30;77.10
810;DHT22;387;48.772;9.186;2024-03-08T07:43:04;4.30;77.30
810;DHT22;387;48.772;9.186;2024-03-08T07:45:30;4.40;77.00
810;DHT22;387;48.772;9.186;2024-03-08T07:47:56;4.50;76.70
810;DHT22;387;48.772;9.186;2024-03-08T07:50:22;4.60;76.70
810;DHT22;387;48.772;9.186;2024-03-08T07:52:48;4.70;76.40
810;DHT22;387;48.772;9.186;2024-03-08T07:55:14;4.70;76.10
810;DHT22;387;48.772;9.186;2024-03-08T07:57:41;4.70;75.40
810;DHT22;387;48.772;9.186;2024-03-08T08:00:08;4.80;75.20
810;DHT22;387;48.772;9.186;2024-03-08T08:02:35;4.80;75.10
810;DHT22;387;48.772;9.186;2024-03-08T08:05:01;4.90;74.90
810;DHT22;387;48.772;9.186;2024-03-08T08:07:26;4.90;74.50
810;DHT22;387;48.772;9.186;2024-03-08T08:09:53;5.00;74.50
810;DHT22;387;48.772;9.186;2024-03-08T08:12:19;5.00;74.00
810;DHT22;387;48.772;9.186;2024-03-08T08:14:44;5.00;74.00
810;DHT22;387;48.772;9.186;2024-03-08T08:17:10;5.00;73.70
810;DHT22;387;48.772;9.186;2024-03-08T08:19:36;5.00;74.00
810;DHT22;387;48.772;9.186;2024-03-08T08:22:02;5.10;73.90
810;DHT22;387;48.772;9.186;2024-03-08T08:24:28;5.10;73.60
810;DHT22;387;48.772;9.186;2024-03-08T08:26:54;4.90;73.50
810;DHT22;387;48.772;9.186;2024-03-08T08:29:19;4.80;73.90
810;DHT22;387;48.772;9.186;2024-03-08T08:31:46;4.80;74.20
810;DHT22;387;48.772;9.186;2024-03-08T08:34:12;4.90;74.30
810;DHT22;387;48.772;9.186;2024-03-08T08:36:39;4.90;74.30
810;DHT22;387;48.772;9.186;2024-03-08T08:39:05;5.00;74.50
810;DHT22;387;48.772;9.186;2024-03-08T08:41:37;5.00;74.00
810;DHT22;387;48.772;9.186;2024-03-08T08:44:03;4.90;73.90
810;DHT22;387;48.772;9.186;2024-03-08T08:46:29;4.90;74.00
810;DHT22;387;48.772;9.186;2024-03-08T08:48:54;4.90;74.00
810;DHT22;387;48.772;9.186;2024-03-08T08:51:20;5.00;74.20
810;DHT22;387;48.772;9.186;2024-03-08T08:53:46;5.10;73.90
810;DHT22;387;48.772;9.186;2024-03-08T08:56:13;5.20;73.70
810;DHT22;387;48.772;9.186;2024-03-08T08:58:39;5.30;73.50
810;DHT22;387;48.772;9.186;2024-03-08T09:01:06;5.30;73.00
810;DHT22;387;48.772;9.186;2024-03-08T09:03:33;5.30;72.90
810;DHT22;387;48.772;9.186;2024-03-08T09:06:00;5.30;72.90
810;DHT22;387;48.772;9.186;2024-03-08T09:08:25;5.10;72.90
810;DHT22;387;48.772;9.186;2024-03-08T09:10:51;5.20;73.30
810;DHT22;387;48.772;9.186;2024-03-08T09:13:17;5.30;73.30
810;DHT22;387;48.772;9.186;2024-03-08T09:15:43;5.40;73.30
810;DHT22;387;48.772;9.186;2024-03-08T09:18:09;5.30;73.20
810;DHT22;387;48.772;9.186;2024-03-08T09:20:35;5.20;73.30
810;DHT22;387;48.772;9.186;2024-03-08T09:23:02;5.30;73.90
810;DHT22;387;48.772;9.186;2024-03-08T09:25:29;5.40;73.60
810;DHT22;387;48.772;9.186;2024-03-08T09:27:55;5.40;73.50
810;DHT22;387;48.772;9.186;2024-03-08T09:30:21;5.50;73.30
810;DHT22;387;48.772;9.186;2024-03-08T09:32:49;5.40;72.90
810;DHT22;387;48.772;9.186;2024-03-08T09:35:16;5.50;73.00
810;DHT22;387;48.772;9.186;2024-03-08T09:37:42;5.40;72.70
810;DHT22;387;48.772;9.186;2024-03-08T09:40:07;5.40;72.70
810;DHT22;387;48.772;9.186;2024-03-08T09:42:41;5.30;73.00
810;DHT22;387;48.772;9.186;2024-03-08T09:45:11;5.30;73.00
810;DHT22;387;48.772;9.186;2024-03-08T09:47:39;5.30;73.50
810;DHT22;387;48.772;9.186;2024-03-08T09:50:07;5.40;73.30
810;DHT22;387;48.772;9.186;2024-03-08T09:52:41;5.60;73.30
810;DHT22;387;48.772;9.186;2024-03-08T09:55:09;5.70;72.70
810;DHT22;387;48.772;9.186;2024-03-08T09:57:37;5.80;72.10
810;DHT22;387;48.772;9.186;2024-03-08T10:00:04;5.80;71.80
810;DHT22;387;48.772;9.186;2024-03-08T10:02:45;5.80;71.80
810;DHT22;387;48.772;9.186;2024-03-08T10:05:12;5.70;72.00
810;DHT22;387;48.772;9.186;2024-03-08T10:07:38;5.70;72.00
810;DHT22;387;48.772;9.186;2024-03-08T10:10:04;5.80;72.10
810;DHT22;387;48.772;9.186;2024-03-08T10:12:30;5.70;71.80
810;DHT22;387;48.772;9.186;2024-03-08T10:14:58;5.60;71.70
810;DHT22;387;48.772;9.186;2024-03-08T10:17:24;5.70;72.30
810;DHT22;387;48.772;9.186;2024-03-08T10:19:51;5.80;72.10
810;DHT22;387;48.772;9.186;2024-03-08T10:22:19;6.00;72.10
810;DHT22;387;48.772;9.186;2024-03-08T10:24:46;6.00;71.30
810;DHT22;387;48.772;9.186;2024-03-08T10:27:12;6.20;70.80
810;DHT22;387;48.772;9.186;2024-03-08T10:29:37;6.30;70.50
810;DHT22;387;48.772;9.186;2024-03-08T10:32:08;6.40;70.70
810;DHT22;387;48.772;9.186;2024-03-08T10:34:34;6.50;70.20
810;DHT22;387;48.772;9.186;2024-03-08T10:37:14;6.50;69.70
810;DHT22;387;48.772;9.186;2024-03-08T10:39:48;6.50;69.50
810;DHT22;387;48.772;9.186;2024-03-08T10:42:23;6.50;69.70
810;DHT22;387;48.772;9.186;2024-03-08T10:48:10;6.90;69.40
810;DHT22;387;48.772;9.186;2024-03-08T10:50:43;6.90;68.50
810;DHT22;387;48.772;9.186;2024-03-08T10:53:11;7.10;68.80
810;DHT22;387;48.772;9.186;2024-03-08T10:55:40;7.00;68.20
810;DHT22;387;48.772;9.186;2024-03-08T10:58:06;7.10;68.20
810;DHT22;387;48.772;9.186;2024-03-08T11:00:33;7.10;67.90
810;DHT22;387;48.772;9.186;2024-03-08T11:02:59;7.00;68.20
810;DHT22;387;48.772;9.186;2024-03-08T11:05:39;6.90;68.20
810;DHT22;387;48.772;9.186;2024-03-08T11:08:17;6.80;68.80
810;DHT22;387;48.772;9.186;2024-03-08T11:10:50;6.90;69.20
810;DHT22;387;48.772;9.186;2024-03-08T11:13:37;6.70;69.10
810;DHT22;387;48.772;9.186;2024-03-08T11:16:08;6.70;69.20
810;DHT22;387;48.772;9.186;2024-03-08T11:18:35;6.70;69.10
810;DHT22;387;48.772;9.186;2024-03-08T11:21:04;6.70;69.10
810;DHT22;387;48.772;9.186;2024-03-08T11:23:33;6.80;69.40
810;DHT22;387;48.772;9.186;2024-03-08T11:26:00;6.90;69.10
810;DHT22;387;48.772;9.186;2024-03-08T11:28:26;6.70;69.10
810;DHT22;387;48.772;9.186;2024-03-08T11:33:28;6.90;69.50
810;DHT22;387;48.772;9.186;2024-03-08T11:36:08;7.00;69.10
810;DHT22;387;48.772;9.186;2024-03-08T11:38:43;7.20;68.80
810;DHT22;387;48.772;9.186;2024-03-08T11:41:09;7.50;68.50
810;DHT22;387;48.772;9.186;2024-03-08T11:43:40;7.80;67.60
810;DHT22;387;48.772;9.186;2024-03-08T11:46:10;7.90;66.90
810;DHT22;387;48.772;9.186;2024-03-08T11:48:39;8.10;66.60
810;DHT22;387;48.772;9.186;2024-03-08T11:51:08;8.50;66.40
810;DHT22;387;48.772;9.186;2024-03-08T11:53:33;8.50;65.30
810;DHT22;387;48.772;9.186;2024-03-08T11:56:07;8.50;65.60
810;DHT22;387;48.772;9.186;2024-03-08T11:58:33;8.60;65.60
810;DHT22;387;48.772;9.186;2024-03-08T12:01:06;8.60;65.40
810;DHT22;387;48.772;9.186;2024-03-08T12:03:32;8.90;65.10
810;DHT22;387;48.772;9.186;2024-03-08T12:06:01;8.90;65.10
810;DHT22;387;48.772;9.186;2024-03-08T12:08:31;8.80;65.80
810;DHT22;387;48.772;9.186;2024-03-08T12:10:57;9.00;65.70
810;DHT22;387;48.772;9.186;2024-03-08T12:13:31;9.10;65.60
810;DHT22;387;48.772;9.186;2024-03-08T12:15:57;9.30;65.00
810;DHT22;387;48.772;9.186;2024-03-08T12:18:26;9.60;65.10
810;DHT22;387;48.772;9.186;2024-03-08T12:21:04;9.80;64.10
810;DHT22;387;48.772;9.186;2024-03-08T12:23:33;10.00;64.20
810;DHT22;387;48.772;9.186;2024-03-08T12:26:15;10.00;63.80
810;DHT22;387;48.772;9.186;2024-03-08T12:28:42;10.00;64.20
810;DHT22;387;48.772;9.186;2024-03-08T12:31:12;10.30;64.20
810;DHT22;387;48.772;9.186;2024-03-08T12:36:15;10.60;63.20
810;DHT22;387;48.772;9.186;2024-03-08T12:38:46;10.80;62.90
810;DHT22;387;48.772;9.186;2024-03-08T12:41:15;10.60;62.30
810;DHT22;387;48.772;9.186;2024-03-08T12:43:43;10.30;63.70
810;DHT22;387;48.772;9.186;2024-03-08T12:46:12;10.30;63.70
810;DHT22;387;48.772;9.186;2024-03-08T12:48:38;10.20;63.90
810;DHT22;387;48.772;9.186;2024-03-08T12:51:07;10.30;64.10
810;DHT22;387;48.772;9.186;2024-03-08T12:53:33;10.50;63.20
810;DHT22;387;48.772;9.186;2024-03-08T12:56:02;10.50;63.40
810;DHT22;387;48.772;9.186;2024-03-08T12:58:29;10.50;63.50
810;DHT22;387;48.772;9.186;2024-03-08T13:00:54;10.60;63.50
810;DHT22;387;48.772;9.186;2024-03-08T13:03:20;10.80;63.20
810;DHT22;387;48.772;9.186;2024-03-08T13:05:48;10.90;63.10
810;DHT22;387;48.772;9.186;2024-03-08T13:08:14;11.00;62.30
810;DHT22;387;48.772;9.186;2024-03-08T13:10:41;11.20;62.00
810;DHT22;387;48.772;9.186;2024-03-08T13:13:12;10.80;62.30
810;DHT22;387;48.772;9.186;2024-03-08T13:15:40;10.90;63.40
810;DHT22;387;48.772;9.186;2024-03-08T13:18:06;11.10;63.20
810;DHT22;387;48.772;9.186;2024-03-08T13:20:35;11.10;62.30
810;DHT22;387;48.772;9.186;2024-03-08T13:23:04;11.20;62.30
810;DHT22;387;48.772;9.186;2024-03-08T13:25:31;11.40;62.00
810;DHT22;387;48.772;9.186;2024-03-08T13:27:56;11.60;61.30
810;DHT22;387;48.772;9.186;2024-03-08T13:30:24;11.60;61.30
810;DHT22;387;48.772;9.186;2024-03-08T13:32:52;11.50;61.00
810;DHT22;387;48.772;9.186;2024-03-08T13:35:18;10.90;61.90
810;DHT22;387;48.772;9.186;2024-03-08T13:37:50;10.60;63.50
810;DHT22;387;48.772;9.186;2024-03-08T13:40:16;10.70;63.70
810;DHT22;387;48.772;9.186;2024-03-08T13:42:44;10.90;63.40
810;DHT22;387;48.772;9.186;2024-03-08T13:45:10;11.00;63.10
810;DHT22;387;48.772;9.186;2024-03-08T13:47:40;10.70;62.90
810;DHT22;387;48.772;9.186;2024-03-08T13:50:07;10.70;63.90
810;DHT22;387;48.772;9.186;2024-03-08T13:52:33;10.90;63.80
810;DHT22;387;48.772;9.186;2024-03-08T13:55:00;10.80;63.50
810;DHT22;387;48.772;9.186;2024-03-08T13:57:26;11.00;63.50
810;DHT22;387;48.772;9.186;2024-03-08T13:59:53;11.10;62.90
810;DHT22;387;48.772;9.186;2024-03-08T14:02:18;11.20;62.30
810;DHT22;387;48.772;9.186;2024-03-08T14:04:44;11.20;62.20
810;DHT22;387;48.772;9.186;2024-03-08T14:07:09;11.30;62.20
810;DHT22;387;48.772;9.186;2024-03-08T14:09:36;11.40;61.90
810;DHT22;387;48.772;9.186;2024-03-08T14:12:06;11.60;61.90
810;DHT22;387;48.772;9.186;2024-03-08T14:14:33;11.60;61.50
810;DHT22;387;48.772;9.186;2024-03-08T14:17:02;12.10;61.50
810;DHT22;387;48.772;9.186;2024-03-08T14:19:29;12.30;59.30
810;DHT22;387;48.772;9.186;2024-03-08T14:21:56;12.60;59.20
810;DHT22;387;48.772;9.186;2024-03-08T14:24:22;12.70;58.40
810;DHT22;387;48.772;9.186;2024-03-08T14:26:49;12.70;58.50
810;DHT22;387;48.772;9.186;2024-03-08T14:29:15;12.60;58.40
810;DHT22;387;48.772;9.186;2024-03-08T14:31:41;12.50;58.50
810;DHT22;387;48.772;9.186;2024-03-08T14:34:08;12.70;58.50
810;DHT22;387;48.772;9.186;2024-03-08T14:36:34;12.40;58.90
810;DHT22;387;48.772;9.186;2024-03-08T14:39:00;12.60;59.20
810;DHT22;387;48.772;9.186;2024-03-08T14:41:25;12.90;57.80
810;DHT22;387;48.772;9.186;2024-03-08T14:43:52;12.90;57.40
810;DHT22;387;48.772;9.186;2024-03-08T14:46:22;12.80;58.00
810;DHT22;387;48.772;9.186;2024-03-08T14:48:49;12.70;58.00
810;DHT22;387;48.772;9.186;2024-03-08T14:51:18;12.90;58.10
810;DHT22;387;48.772;9.186;2024-03-08T14:53:47;12.90;58.40
810;DHT22;387;48.772;9.186;2024-03-08T14:56:12;13.00;58.10
810;DHT22;387;48.772;9.186;2024-03-08T14:58:45;13.00;58.10
810;DHT22;387;48.772;9.186;2024-03-08T15:01:12;13.10;58.00
810;DHT22;387;48.772;9.186;2024-03-08T15:03:44;13.00;58.20
810;DHT22;387;48.772;9.186;2024-03-08T15:06:09;13.10;58.50
810;DHT22;387;48.772;9.186;2024-03-08T15:08:36;13.10;58.10
810;DHT22;387;48.772;9.186;2024-03-08T15:11:02;13.00;58.50
810;DHT22;387;48.772;9.186;2024-03-08T15:13:28;13.20;58.20
810;DHT22;387;48.772;9.186;2024-03-08T15:15:59;13.20;58.40
810;DHT22;387;48.772;9.186;2024-03-08T15:18:25;13.30;58.00
810;DHT22;387;48.772;9.186;2024-03-08T15:20:54;13.20;58.00
810;DHT22;387;48.772;9.186;2024-03-08T15:23:20;13.20;58.10
810;DHT22;387;48.772;9.186;2024-03-08T15:25:47;13.30;57.80
810;DHT22;387;48.772;9.186;2024-03-08T15:28:15;13.30;57.80
810;DHT22;387;48.772;9.186;2024-03-08T15:30:43;12.90;58.50
810;DHT22;387;48.772;9.186;2024-03-08T15:33:12;13.30;58.40
810;DHT22;387;48.772;9.186;2024-03-08T15:35:41;13.30;58.10
810;DHT22;387;48.772;9.186;2024-03-08T15:38:06;13.60;57.80
810;DHT22;387;48.772;9.186;2024-03-08T15:40:32;13.80;57.00
810;DHT22;387;48.772;9.186;2024-03-08T15:43:00;13.70;57.00
810;DHT22;387;48.772;9.186;2024-03-08T15:45:26;13.70;57.30
810;DHT22;387;48.772;9.186;2024-03-08T15:47:58;13.90;56.60
810;DHT22;387;48.772;9.186;2024-03-08T15:50:23;13.70;56.60
810;DHT22;387;48.772;9.186;2024-03-08T15:52:50;13.80;57.00
810;DHT22;387;48.772;9.186;2024-03-08T15:55:16;13.60;57.20
810;DHT22;387;48.772;9.186;2024-03-08T15:57:49;13.70;57.40
810;DHT22;387;48.772;9.186;2024-03-08T16:00:19;13.70;57.00
810;DHT22;387;48.772;9.186;2024-03-08T16:03:10;13.80;56.90
810;DHT22;387;48.772;9.186;2024-03-08T16:05:37;13.40;57.40
810;DHT22;387;48.772;9.186;2024-03-08T16:08:04;13.10;58.10
810;DHT22;387;48.772;9.186;2024-03-08T16:10:33;12.90;58.80
810;DHT22;387;48.772;9.186;2024-03-08T16:12:59;12.80;59.30
810;DHT22;387;48.772;9.186;2024-03-08T16:15:26;12.60;59.70
810;DHT22;387;48.772;9.186;2024-03-08T16:17:52;12.40;60.30
810;DHT22;387;48.772;9.186;2024-03-08T16:20:17;12.00;61.20
810;DHT22;387;48.772;9.186;2024-03-08T16:22:44;11.80;61.70
810;DHT22;387;48.772;9.186;2024-03-08T16:25:10;11.70;62.00
810;DHT22;387;48.772;9.186;2024-03-08T16:27:39;11.60;62.00
810;DHT22;387;48.772;9.186;2024-03-08T16:30:06;11.40;62.50
810;DHT22;387;48.772;9.186;2024-03-08T16:32:45;11.40;62.90
810;DHT22;387;48.772;9.186;2024-03-08T16:35:13;11.30;63.10
810;DHT22;387;48.772;9.186;2024-03-08T16:37:42;11.20;63.40
810;DHT22;387;48.772;9.186;2024-03-08T16:40:08;11.10;63.70
810;DHT22;387;48.772;9.186;2024-03-08T16:42:43;11.00;63.90
810;DHT22;387;48.772;9.186;2024-03-08T16:45:09;11.00;64.20
810;DHT22;387;48.772;9.186;2024-03-08T16:47:36;10.90;64.20
810;DHT22;387;48.772;9.186;2024-03-08T16:50:02;10.80;64.40
810;DHT22;387;48.772;9.186;2024-03-08T16:52:31;10.70;64.80
810;DHT22;387;48.772;9.186;2024-03-08T16:54:57;10.60;65.30